sensor_id;sensor_type;location;lat;lon;timestamp;P1;durP1;ratioP1;P2;durP2;ratioP2
23336;SDS011;11840;45.414;12.372;2022-07-23T04:24:45;38.33;;;34.75;;
23336;SDS011;11840;45.414;12.372;2022-07-23T04:27:11;44.35;;;40.13;;
23336;SDS011;11840;45.414;12.372;2022-07-23T04:29:37;42.20;;;38.22;;
23336;SDS011;11840;45.414;12.372;2022-07-23T04:32:03;41.88;;;37.90;;
23336;SDS011;11840;45.414;12.372;2022-07-23T04:34:29;43.28;;;39.08;;
23336;SDS011;11840;45.414;12.372;2022-07-23T04:36:54;44.03;;;40.13;;
23336;SDS011;11840;45.414;12.372;2022-07-23T04:39:20;43.97;;;39.92;;
23336;SDS011;11840;45.414;12.372;2022-07-23T04:41:46;41.58;;;37.78;;
23336;SDS011;11840;45.414;12.372;2022-07-23T04:44:13;41.03;;;37.13;;
23336;SDS011;11840;45.414;12.372;2022-07-23T04:46:40;42.80;;;39.00;;
23336;SDS011;11840;45.414;12.372;2022-07-23T04:49:07;39.00;;;35.40;;
23336;SDS011;11840;45.414;12.372;2022-07-23T04:51:32;39.67;;;35.67;;
23336;SDS011;11840;45.414;12.372;2022-07-23T04:53:59;34.67;;;31.50;;
23336;SDS011;11840;45.414;12.372;2022-07-23T04:56:24;36.47;;;32.97;;
23336;SDS011;11840;45.414;12.372;2022-07-23T04:58:50;36.63;;;33.08;;
23336;SDS011;11840;45.414;12.372;2022-07-23T05:01:16;38.17;;;34.25;;
23336;SDS011;11840;45.414;12.372;2022-07-23T05:03:41;35.95;;;32.53;;
23336;SDS011;11840;45.414;12.372;2022-07-23T05:06:08;34.63;;;31.27;;
23336;SDS011;11840;45.414;12.372;2022-07-23T05:08:33;35.28;;;31.95;;
23336;SDS011;11840;45.414;12.372;2022-07-23T05:10:59;36.83;;;33.22;;
23336;SDS011;11840;45.414;12.372;2022-07-23T05:13:24;35.55;;;32.00;;
23336;SDS011;11840;45.414;12.372;2022-07-23T05:15:51;34.53;;;31.38;;
23336;SDS011;11840;45.414;12.372;2022-07-23T05:18:17;37.30;;;33.60;;
23336;SDS011;11840;45.414;12.372;2022-07-23T05:20:43;35.40;;;32.25;;
23336;SDS011;11840;45.414;12.372;2022-07-23T05:23:12;37.53;;;34.13;;
23336;SDS011;11840;45.414;12.372;2022-07-23T05:25:39;36.72;;;33.22;;
23336;SDS011;11840;45.414;12.372;2022-07-23T05:28:06;37.20;;;33.70;;
23336;SDS011;11840;45.414;12.372;2022-07-23T05:30:32;35.35;;;32.22;;
23336;SDS011;11840;45.414;12.372;2022-07-23T05:33:01;35.63;;;32.55;;
23336;SDS011;11840;45.414;12.372;2022-07-23T05:35:27;36.75;;;33.40;;
23336;SDS011;11840;45.414;12.372;2022-07-23T05:38:16;34.08;;;30.77;;
23336;SDS011;11840;45.414;12.372;2022-07-23T05:40:41;32.72;;;29.77;;
23336;SDS011;11840;45.414;12.372;2022-07-23T05:43:07;34.30;;;31.17;;
23336;SDS011;11840;45.414;12.372;2022-07-23T05:45:33;33.15;;;29.85;;
23336;SDS011;11840;45.414;12.372;2022-07-23T05:48:00;31.25;;;28.02;;
23336;SDS011;11840;45.414;12.372;2022-07-23T05:50:33;30.88;;;27.88;;
23336;SDS011;11840;45.414;12.372;2022-07-23T05:53:05;29.38;;;26.52;;
23336;SDS011;11840;45.414;12.372;2022-07-23T05:55:31;31.73;;;28.65;;
23336;SDS011;11840;45.414;12.372;2022-07-23T05:57:57;31.95;;;28.63;;
23336;SDS011;11840;45.414;12.372;2022-07-23T06:00:24;31.67;;;28.70;;
23336;SDS011;11840;45.414;12.372;2022-07-23T06:02:50;31.35;;;28.20;;
23336;SDS011;11840;45.414;12.372;2022-07-23T06:05:16;30.20;;;27.30;;
23336;SDS011;11840;45.414;12.372;2022-07-23T06:07:43;32.67;;;29.58;;
23336;SDS011;11840;45.414;12.372;2022-07-23T06:10:09;29.45;;;26.67;;
23336;SDS011;11840;45.414;12.372;2022-07-23T06:12:35;32.08;;;28.98;;
23336;SDS011;11840;45.414;12.372;2022-07-23T06:15:01;29.58;;;26.80;;
23336;SDS011;11840;45.414;12.372;2022-07-23T06:17:27;28.55;;;25.88;;
23336;SDS011;11840;45.414;12.372;2022-07-23T06:19:53;29.40;;;26.70;;
23336;SDS011;11840;45.414;12.372;2022-07-23T06:22:19;28.63;;;25.95;;
23336;SDS011;11840;45.414;12.372;2022-07-23T06:24:45;29.98;;;27.08;;
23336;SDS011;11840;45.414;12.372;2022-07-23T06:27:11;28.15;;;25.40;;
23336;SDS011;11840;45.414;12.372;2022-07-23T06:29:36;28.73;;;26.15;;
23336;SDS011;11840;45.414;12.372;2022-07-23T06:32:02;28.77;;;25.98;;
23336;SDS011;11840;45.414;12.372;2022-07-23T06:34:27;31.20;;;28.23;;
23336;SDS011;11840;45.414;12.372;2022-07-23T06:36:55;26.75;;;24.00;;
23336;SDS011;11840;45.414;12.372;2022-07-23T06:39:20;27.48;;;24.98;;
23336;SDS011;11840;45.414;12.372;2022-07-23T06:41:47;30.02;;;27.25;;
23336;SDS011;11840;45.414;12.372;2022-07-23T06:44:16;29.90;;;26.83;;
23336;SDS011;11840;45.414;12.372;2022-07-23T06:46:41;33.70;;;30.45;;
23336;SDS011;11840;45.414;12.372;2022-07-23T06:49:07;25.15;;;22.75;;
23336;SDS011;11840;45.414;12.372;2022-07-23T06:51:32;27.05;;;24.55;;
23336;SDS011;11840;45.414;12.372;2022-07-23T06:54:00;30.48;;;27.42;;
23336;SDS011;11840;45.414;12.372;2022-07-23T06:56:25;25.42;;;22.83;;
23336;SDS011;11840;45.414;12.372;2022-07-23T06:58:52;26.42;;;23.67;;
23336;SDS011;11840;45.414;12.372;2022-07-23T07:01:18;24.88;;;22.38;;
23336;SDS011;11840;45.414;12.372;2022-07-23T07:03:43;24.40;;;22.27;;
23336;SDS011;11840;45.414;12.372;2022-07-23T07:06:09;28.42;;;25.60;;
23336;SDS011;11840;45.414;12.372;2022-07-23T07:08:36;25.25;;;22.70;;
23336;SDS011;11840;45.414;12.372;2022-07-23T07:11:02;23.63;;;21.35;;
23336;SDS011;11840;45.414;12.372;2022-07-23T07:13:28;26.83;;;24.25;;
23336;SDS011;11840;45.414;12.372;2022-07-23T07:15:54;25.00;;;22.05;;
23336;SDS011;11840;45.414;12.372;2022-07-23T07:18:20;27.23;;;23.58;;
23336;SDS011;11840;45.414;12.372;2022-07-23T07:20:46;27.48;;;24.65;;
23336;SDS011;11840;45.414;12.372;2022-07-23T07:23:12;28.77;;;25.95;;
23336;SDS011;11840;45.414;12.372;2022-07-23T07:25:39;26.23;;;23.48;;
23336;SDS011;11840;45.414;12.372;2022-07-23T07:28:05;27.63;;;24.67;;
23336;SDS011;11840;45.414;12.372;2022-07-23T07:30:31;28.33;;;22.88;;
23336;SDS011;11840;45.414;12.372;2022-07-23T07:32:56;27.10;;;23.52;;
23336;SDS011;11840;45.414;12.372;2022-07-23T07:35:23;27.50;;;24.40;;
23336;SDS011;11840;45.414;12.372;2022-07-23T07:37:49;25.48;;;22.92;;
23336;SDS011;11840;45.414;12.372;2022-07-23T07:40:15;26.35;;;23.73;;
23336;SDS011;11840;45.414;12.372;2022-07-23T07:42:44;26.55;;;23.17;;
23336;SDS011;11840;45.414;12.372;2022-07-23T07:45:10;26.98;;;24.20;;
23336;SDS011;11840;45.414;12.372;2022-07-23T07:47:36;26.80;;;24.25;;
23336;SDS011;11840;45.414;12.372;2022-07-23T07:50:02;24.42;;;21.77;;
23336;SDS011;11840;45.414;12.372;2022-07-23T07:52:28;24.40;;;21.88;;
23336;SDS011;11840;45.414;12.372;2022-07-23T07:54:53;23.20;;;20.75;;
23336;SDS011;11840;45.414;12.372;2022-07-23T07:57:20;23.88;;;21.55;;
23336;SDS011;11840;45.414;12.372;2022-07-23T07:59:46;21.77;;;19.80;;
23336;SDS011;11840;45.414;12.372;2022-07-23T08:02:12;22.58;;;20.20;;
23336;SDS011;11840;45.414;12.372;2022-07-23T08:04:40;24.85;;;22.48;;
23336;SDS011;11840;45.414;12.372;2022-07-23T08:07:07;22.02;;;19.73;;
23336;SDS011;11840;45.414;12.372;2022-07-23T08:09:33;21.23;;;19.20;;
23336;SDS011;11840;45.414;12.372;2022-07-23T08:11:59;22.45;;;20.20;;
23336;SDS011;11840;45.414;12.372;2022-07-23T08:14:25;20.02;;;18.17;;
23336;SDS011;11840;45.414;12.372;2022-07-23T08:16:51;25.65;;;17.65;;
23336;SDS011;11840;45.414;12.372;2022-07-23T08:19:18;19.80;;;17.65;;
23336;SDS011;11840;45.414;12.372;2022-07-23T08:21:44;19.73;;;17.77;;
23336;SDS011;11840;45.414;12.372;2022-07-23T08:24:10;22.17;;;19.77;;
23336;SDS011;11840;45.414;12.372;2022-07-23T08:26:36;20.33;;;18.33;;
23336;SDS011;11840;45.414;12.372;2022-07-23T08:29:02;20.75;;;18.75;;
23336;SDS011;11840;45.414;12.372;2022-07-23T08:31:28;21.52;;;19.48;;
23336;SDS011;11840;45.414;12.372;2022-07-23T08:33:54;21.13;;;19.02;;
23336;SDS011;11840;45.414;12.372;2022-07-23T08:36:20;22.38;;;20.20;;
23336;SDS011;11840;45.414;12.372;2022-07-23T08:38:46;23.13;;;20.30;;
23336;SDS011;11840;45.414;12.372;2022-07-23T08:41:12;23.65;;;20.40;;
23336;SDS011;11840;45.414;12.372;2022-07-23T08:43:38;21.25;;;19.10;;
23336;SDS011;11840;45.414;12.372;2022-07-23T08:46:05;20.25;;;18.08;;
23336;SDS011;11840;45.414;12.372;2022-07-23T08:48:32;21.73;;;18.48;;
23336;SDS011;11840;45.414;12.372;2022-07-23T08:50:58;21.70;;;19.42;;
23336;SDS011;11840;45.414;12.372;2022-07-23T08:53:25;20.63;;;18.73;;
23336;SDS011;11840;45.414;12.372;2022-07-23T08:55:52;22.15;;;19.95;;
23336;SDS011;11840;45.414;12.372;2022-07-23T08:58:18;21.50;;;19.45;;
23336;SDS011;11840;45.414;12.372;2022-07-23T09:00:45;22.92;;;20.67;;
23336;SDS011;11840;45.414;12.372;2022-07-23T09:03:15;23.02;;;20.63;;
23336;SDS011;11840;45.414;12.372;2022-07-23T09:05:42;22.88;;;20.63;;
23336;SDS011;11840;45.414;12.372;2022-07-23T09:13:22;19.95;;;17.98;;
